Time;durP1;ratioP1;P1;durP2;ratioP2;P2;SDS_P1;SDS_P2;PMS_P1;PMS_P2;Temp;Humidity;BMP_temperature;BMP_pressure;BME280_temperature;BME280_humidity;BME280_pressure;Samples;Min_cycle;Max_cycle;Signal;HPM_P1;HPM_P2
2021/09/13 00:00:31;;;;;;;;;;;;;;;17.72;100.00;100046.28;1704534;82;20136;-92
2021/09/13 00:02:57;;;;;;;;;;;;;;;17.68;100.00;100045.06;1688896;83;20174;-90
2021/09/13 00:05:22;;;;;;;;;;;;;;;17.57;100.00;100053.17;1691817;83;20130;-95
2021/09/13 00:07:52;;;;;;;;;;;;;;;17.63;100.00;100049.37;1706691;81;21115;-91
2021/09/13 00:10:17;;;;;;;;;;;;;;;17.65;100.00;100049.97;1708734;82;20214;-90
2021/09/13 00:12:44;;;;;;;;;;;;;;;17.62;100.00;100049.05;1702744;83;20748;-94
2021/09/13 00:15:10;;;;;;;;;;;;;;;17.48;100.00;100053.06;1692577;83;20219;-94
2021/09/13 00:17:40;;;;;;;;;;;;;;;17.39;100.00;100051.61;1704464;83;20207;-94
2021/09/13 00:20:06;;;;;;;;;;;;;;;17.33;100.00;100053.76;1706187;82;20446;-89
2021/09/13 00:22:32;;;;;;;;;;;;;;;17.31;100.00;100054.45;1706788;82;20170;-92
2021/09/13 00:24:59;;;;;;;;;;;;;;;17.31;100.00;100049.95;1689593;83;20185;-92
2021/09/13 00:27:25;;;;;;;;;;;;;;;17.27;100.00;100047.89;1708226;81;20795;-92
2021/09/13 00:29:51;;;;;;;;;;;;;;;17.27;100.00;100054.56;1699895;82;20205;-93
2021/09/13 00:32:20;;;;;;;;;;;;;;;17.28;100.00;100049.55;1707132;81;21162;-92
2021/09/13 00:34:46;;;;;;;;;;;;;;;17.25;100.00;100043.28;1705851;83;20165;-92
2021/09/13 00:37:12;;;;;;;;;;;;;;;17.23;100.00;100050.97;1702117;82;20795;-92
2021/09/13 00:39:37;;;;;;;;;;;;;;;17.28;100.00;100050.89;1705971;82;20162;-92
2021/09/13 00:42:05;;;;;;;;;;;;;;;17.27;100.00;100050.56;1708452;82;20144;-92
2021/09/13 00:44:30;;;;;;;;;;;;;;;17.21;100.00;100050.84;1702715;82;21152;-92
2021/09/13 00:46:59;;;;;;;;;;;;;;;17.19;100.00;100044.37;1710830;82;20673;-92
2021/09/13 00:49:26;;;;;;;;;;;;;;;17.11;100.00;100041.91;1707093;83;20872;-93
2021/09/13 00:51:54;;;;;;;;;;;;;;;17.12;100.00;100044.90;1704773;82;20637;-92
2021/09/13 00:54:19;;;;;;;;;;;;;;;17.14;100.00;100045.51;1712085;81;20143;-92
2021/09/13 00:56:45;;;;;;;;;;;;;;;17.10;100.00;100047.45;1705834;82;21888;-91
2021/09/13 00:59:13;;;;;;;;;;;;;;;17.11;100.00;100049.09;1710660;82;20154;-93
2021/09/13 01:01:40;;;;;;;;;;;;;;;17.02;100.00;100057.27;1710086;83;20092;-92
2021/09/13 01:04:09;;;;;;;;;;;;;;;17.03;100.00;100050.11;1705739;82;20882;-91
2021/09/13 01:06:34;;;;;;;;;;;;;;;17.04;100.00;100052.58;1705133;82;20178;-92
2021/09/13 01:09:02;;;;;;;;;;;;;;;17.01;100.00;100056.13;1694146;83;21450;-93
2021/09/13 01:11:27;;;;;;;;;;;;;;;17.01;100.00;100054.80;1706132;82;20136;-94
2021/09/13 01:13:55;;;;;;;;;;;;;;;17.01;100.00;100049.46;1709320;82;20120;-92
2021/09/13 01:16:21;;;;;;;;;;;;;;;17.05;100.00;100048.05;1708049;83;20534;-91
2021/09/13 01:18:47;;;;;;;;;;;;;;;17.07;100.00;100047.33;1704090;83;20488;-91
2021/09/13 01:21:13;;;;;;;;;;;;;;;17.11;100.00;100039.77;1705522;83;21215;-94
2021/09/13 01:23:41;;;;;;;;;;;;;;;17.07;100.00;100043.32;1706764;82;20137;-91
2021/09/13 01:26:12;;;;;;;;;;;;;;;17.09;100.00;100041.30;1705745;82;20249;-92
2021/09/13 01:28:43;;;;;;;;;;;;;;;17.15;100.00;100039.65;1703635;83;21268;-92
2021/09/13 01:31:12;;;;;;;;;;;;;;;17.21;100.00;100039.69;1704895;81;20094;-93
2021/09/13 01:33:37;;;;;;;;;;;;;;;17.19;100.00;100040.37;1684821;83;20177;-93
2021/09/13 01:36:06;;;;;;;;;;;;;;;17.17;100.00;100041.10;1702517;81;20149;-91
2021/09/13 01:38:32;;;;;;;;;;;;;;;17.20;100.00;100036.70;1706482;83;20135;-93
2021/09/13 01:41:01;;;;;;;;;;;;;;;17.19;100.00;100036.38;1688101;83;20252;-92
2021/09/13 01:43:33;;;;;;;;;;;;;;;17.22;100.00;100041.30;1709012;83;21014;-93
2021/09/13 01:46:00;;;;;;;;;;;;;;;17.16;100.00;100042.64;1705081;82;20477;-91
2021/09/13 01:48:28;;;;;;;;;;;;;;;17.15;100.00;100049.83;1712237;82;20178;-92
2021/09/13 01:50:54;;;;;;;;;;;;;;;17.06;100.00;100048.38;1712646;83;20156;-93
2021/09/13 01:53:25;;;;;;;;;;;;;;;17.02;100.00;100044.45;1707471;83;20138;-92
2021/09/13 01:55:51;;;;;;;;;;;;;;;17.01;100.00;100052.97;1704202;82;20292;-92
2021/09/13 01:58:17;;;;;;;;;;;;;;;16.97;100.00;100057.58;1706937;83;21678;-91
2021/09/13 02:00:42;;;;;;;;;;;;;;;16.91;100.00;100051.70;1709883;82;20139;-93
2021/09/13 02:03:11;;;;;;;;;;;;;;;16.93;100.00;100046.98;1708012;82;20786;-91
2021/09/13 02:05:41;;;;;;;;;;;;;;;16.92;100.00;100048.00;1707003;81;20190;-89
2021/09/13 02:08:08;;;;;;;;;;;;;;;16.88;100.00;100047.58;1686796;82;20178;-90
2021/09/13 02:10:36;;;;;;;;;;;;;;;16.90;100.00;100044.72;1708456;83;21092;-90
2021/09/13 02:13:01;;;;;;;;;;;;;;;16.89;100.00;100045.73;1706952;83;20244;-89
2021/09/13 02:15:27;;;;;;;;;;;;;;;16.83;100.00;100044.67;1691502;83;20147;-89
2021/09/13 02:17:52;;;;;;;;;;;;;;;16.84;100.00;100039.14;1707985;82;20149;-88
2021/09/13 02:20:18;;;;;;;;;;;;;;;16.81;100.00;100039.54;1711367;82;20132;-89
2021/09/13 02:22:47;;;;;;;;;;;;;;;16.77;100.00;100040.14;1708284;82;22054;-89
2021/09/13 02:25:12;;;;;;;;;;;;;;;16.75;100.00;100036.34;1713024;82;20118;-89
2021/09/13 02:27:38;;;;;;;;;;;;;;;16.74;100.00;100040.53;1708836;82;20229;-89
2021/09/13 02:30:06;;;;;;;;;;;;;;;16.71;100.00;100039.08;1713006;81;21149;-89
2021/09/13 02:32:32;;;;;;;;;;;;;;;16.70;100.00;100045.42;1709083;82;20148;-88
2021/09/13 02:35:04;;;;;;;;;;;;;;;16.76;100.00;100039.30;1712081;82;21020;-89
2021/09/13 02:37:25;;;;;;;;;;;;;;;16.84;100.00;100049.81;1709744;82;20110;-89
2021/09/13 02:39:51;;;;;;;;;;;;;;;16.82;100.00;100046.50;1714192;81;20183;-88
2021/09/13 02:42:17;;;;;;;;;;;;;;;16.84;100.00;100047.63;1710483;82;21178;-92
2021/09/13 02:44:42;;;;;;;;;;;;;;;16.89;100.00;100045.73;1710884;82;20201;-91
2021/09/13 02:47:08;;;;;;;;;;;;;;;16.92;100.00;100046.17;1714352;82;21046;-92
2021/09/13 02:49:34;;;;;;;;;;;;;;;16.89;100.00;100042.58;1711740;82;20151;-92
2021/09/13 02:52:01;;;;;;;;;;;;;;;16.96;100.00;100041.25;1710316;82;20502;-91
2021/09/13 02:54:27;;;;;;;;;;;;;;;16.98;100.00;100040.03;1687518;82;20163;-90
2021/09/13 02:56:52;;;;;;;;;;;;;;;17.01;100.00;100048.13;1706452;82;20206;-90
2021/09/13 02:59:18;;;;;;;;;;;;;;;17.02;100.00;100039.11;1701013;81;21267;-91
2021/09/13 03:01:44;;;;;;;;;;;;;;;16.97;100.00;100044.23;1686328;83;20245;-90
2021/09/13 03:04:12;;;;;;;;;;;;;;;16.99;100.00;100043.52;1686003;83;20158;-91
2021/09/13 03:06:38;;;;;;;;;;;;;;;17.00;100.00;100046.50;1687615;83;20730;-89
2021/09/13 03:09:03;;;;;;;;;;;;;;;16.91;100.00;100037.84;1685920;83;20133;-89
2021/09/13 03:11:32;;;;;;;;;;;;;;;16.83;100.00;100042.81;1686032;83;21030;-88
2021/09/13 03:13:59;;;;;;;;;;;;;;;16.80;100.00;100045.88;1686782;83;20205;-88
2021/09/13 03:16:26;;;;;;;;;;;;;;;16.77;100.00;100044.95;1674411;83;20461;-90
2021/09/13 03:18:53;;;;;;;;;;;;;;;16.75;100.00;100044.34;1685623;83;20195;-88
2021/09/13 03:21:22;;;;;;;;;;;;;;;16.73;100.00;100045.02;1687920;83;20190;-89
2021/09/13 03:23:51;;;;;;;;;;;;;;;16.62;100.00;100046.94;1684438;83;21222;-91
2021/09/13 03:26:18;;;;;;;;;;;;;;;16.61;100.00;100047.95;1685531;83;20473;-88
2021/09/13 03:28:49;;;;;;;;;;;;;;;16.60;100.00;100045.80;1686182;84;20622;-89
2021/09/13 03:31:14;;;;;;;;;;;;;;;16.57;100.00;100048.86;1687843;83;20195;-87
2021/09/13 03:33:40;;;;;;;;;;;;;;;16.60;100.00;100050.32;1688784;83;20252;-88
2021/09/13 03:36:07;;;;;;;;;;;;;;;16.54;100.00;100054.59;1680084;83;21048;-86
2021/09/13 03:38:34;;;;;;;;;;;;;;;16.53;100.00;100050.78;1682611;84;20215;-87
2021/09/13 03:41:00;;;;;;;;;;;;;;;16.48;100.00;100054.05;1682281;84;20499;-88
2021/09/13 03:43:25;;;;;;;;;;;;;;;16.50;100.00;100047.51;1682797;84;20190;-87
2021/09/13 03:45:51;;;;;;;;;;;;;;;16.46;100.00;100044.91;1682289;84;20729;-88
2021/09/13 03:48:17;;;;;;;;;;;;;;;16.48;100.00;100048.22;1683677;84;21974;-87
2021/09/13 03:50:47;;;;;;;;;;;;;;;16.38;100.00;100050.41;1684884;82;20254;-86
2021/09/13 03:53:15;;;;;;;;;;;;;;;16.25;100.00;100030.34;1683707;82;20171;-87
2021/09/13 03:55:45;;;;;;;;;;;;;;;16.40;100.00;100061.69;1686816;83;20491;-88
2021/09/13 03:58:10;;;;;;;;;;;;;;;16.43;100.00;100062.62;1686329;84;20667;-90
2021/09/13 04:00:36;;;;;;;;;;;;;;;16.45;100.00;100057.95;1685502;83;21046;-91
2021/09/13 04:03:03;;;;;;;;;;;;;;;16.34;100.00;100057.14;1693532;83;20162;-91
2021/09/13 04:05:31;;;;;;;;;;;;;;;16.29;100.00;100056.92;1688989;83;20411;-92
2021/09/13 04:08:41;;;;;;;;;;;;;;;16.22;100.00;100058.70;1689479;83;20781;-92
2021/09/13 04:10:59;;;;;;;;;;;;;;;16.26;100.00;100060.78;1683105;83;20154;-90
2021/09/13 04:13:11;;;;;;;;;;;;;;;16.30;100.00;100058.58;1687148;83;20507;-91
2021/09/13 04:15:43;;;;;;;;;;;;;;;16.25;100.00;100067.64;1690400;83;20188;-91
2021/09/13 04:18:10;;;;;;;;;;;;;;;16.30;100.00;100065.23;1688362;83;20511;-90
2021/09/13 04:20:37;;;;;;;;;;;;;;;16.38;100.00;100070.41;1676244;83;20185;-92
2021/09/13 04:23:04;;;;;;;;;;;;;;;16.37;100.00;100069.27;1693114;83;20206;-91
2021/09/13 04:25:31;;;;;;;;;;;;;;;16.40;100.00;100064.88;1690306;83;21269;-87
2021/09/13 04:27:56;;;;;;;;;;;;;;;16.44;100.00;100070.14;1694207;82;20143;-91
2021/09/13 04:30:30;;;;;;;;;;;;;;;16.47;100.00;100069.23;1693926;83;20120;-92
2021/09/13 04:32:57;;;;;;;;;;;;;;;16.46;100.00;100074.23;1697436;83;20109;-94
2021/09/13 04:35:26;;;;;;;;;;;;;;;16.46;100.00;100076.08;1691559;83;20204;-90
2021/09/13 04:37:53;;;;;;;;;;;;;;;16.38;100.00;100070.41;1691077;83;21155;-90
2021/09/13 04:40:19;;;;;;;;;;;;;;;16.32;100.00;100079.99;1689115;83;20361;-92
2021/09/13 04:42:46;;;;;;;;;;;;;;;16.38;100.00;100078.40;1672600;83;20174;-93
2021/09/13 04:45:12;;;;;;;;;;;;;;;16.36;100.00;100081.78;1688526;82;20151;-90
2021/09/13 04:47:37;;;;;;;;;;;;;;;16.33;100.00;100078.98;1688851;83;20523;-90
2021/09/13 04:50:07;;;;;;;;;;;;;;;16.33;100.00;100087.50;1691087;83;21013;-90
2021/09/13 04:52:35;;;;;;;;;;;;;;;16.34;100.00;100085.13;1691394;82;20090;-86
2021/09/13 04:55:01;;;;;;;;;;;;;;;16.30;100.00;100088.70;1695139;83;20653;-92
2021/09/13 04:57:27;;;;;;;;;;;;;;;16.27;100.00;100089.61;1678043;83;20446;-87
2021/09/13 04:59:55;;;;;;;;;;;;;;;16.33;100.00;100082.17;1697019;82;20114;-86
2021/09/13 05:02:26;;;;;;;;;;;;;;;16.22;100.00;100094.67;1717225;82;21225;-87
2021/09/13 05:04:52;;;;;;;;;;;;;;;16.19;100.00;100091.06;1710526;81;20665;-89
2021/09/13 05:07:20;;;;;;;;;;;;;;;16.22;100.00;100096.02;1712591;81;20178;-88
2021/09/13 05:09:45;;;;;;;;;;;;;;;16.26;100.00;100095.95;1720193;81;20155;-88
2021/09/13 05:12:10;;;;;;;;;;;;;;;16.30;100.00;100091.89;1690414;83;20146;-88
2021/09/13 05:14:36;;;;;;;;;;;;;;;16.31;100.00;100101.50;1716743;81;21097;-88
2021/09/13 05:17:07;;;;;;;;;;;;;;;16.26;100.00;100097.28;1713102;82;20533;-84
2021/09/13 05:19:34;;;;;;;;;;;;;;;16.28;100.00;100099.23;1716327;82;20180;-85
2021/09/13 05:22:00;;;;;;;;;;;;;;;16.28;100.00;100097.90;1708797;82;20903;-85
2021/09/13 05:24:27;;;;;;;;;;;;;;;16.32;100.00;100104.50;1712079;81;20127;-85
2021/09/13 05:26:54;;;;;;;;;;;;;;;16.30;100.00;100102.03;1686123;83;20845;-85
2021/09/13 05:29:22;;;;;;;;;;;;;;;16.41;100.00;100105.98;1705653;82;20934;-88
2021/09/13 05:31:47;;;;;;;;;;;;;;;16.48;100.00;100102.87;1718654;82;21033;-88
2021/09/13 05:34:15;;;;;;;;;;;;;;;16.58;100.00;100101.66;1709879;82;20782;-84
2021/09/13 05:36:42;;;;;;;;;;;;;;;16.56;100.00;100106.38;1708929;81;20349;-87
2021/09/13 05:39:08;;;;;;;;;;;;;;;16.49;100.00;100107.16;1707590;82;21087;-86
2021/09/13 05:41:36;;;;;;;;;;;;;;;16.51;100.00;100107.81;1686972;83;20754;-90
2021/09/13 05:44:02;;;;;;;;;;;;;;;16.48;100.00;100114.02;1720040;81;20977;-83
2021/09/13 05:46:29;;;;;;;;;;;;;;;16.50;100.00;100104.81;1718100;81;20201;-89
2021/09/13 05:48:54;;;;;;;;;;;;;;;16.45;100.00;100108.59;1718635;81;20176;-89
2021/09/13 05:51:20;;;;;;;;;;;;;;;16.49;100.00;100105.02;1711858;81;21153;-86
2021/09/13 05:53:45;;;;;;;;;;;;;;;16.61;100.00;100113.27;1715175;82;20492;-85
2021/09/13 05:56:11;;;;;;;;;;;;;;;16.68;100.00;100115.47;1715190;81;20116;-87
2021/09/13 05:58:37;;;;;;;;;;;;;;;16.64;100.00;100112.88;1712988;82;20545;-87
2021/09/13 06:01:04;;;;;;;;;;;;;;;16.70;100.00;100116.08;1704482;82;20286;-87
2021/09/13 06:03:29;;;;;;;;;;;;;;;16.56;100.00;100107.70;1700126;82;21373;-87
2021/09/13 06:05:55;;;;;;;;;;;;;;;16.72;100.00;100112.73;1703229;83;20202;-87
2021/09/13 06:08:23;;;;;;;;;;;;;;;16.79;100.00;100116.23;1700611;83;21054;-87
2021/09/13 06:10:52;;;;;;;;;;;;;;;16.83;100.00;100108.16;1699305;83;20232;-89
2021/09/13 06:13:17;;;;;;;;;;;;;;;16.79;100.00;100112.75;1698619;83;20424;-87
2021/09/13 06:15:43;;;;;;;;;;;;;;;16.83;100.00;100112.16;1702699;81;21118;-86
2021/09/13 06:18:11;;;;;;;;;;;;;;;16.84;100.00;100106.31;1699217;82;20146;-86
2021/09/13 06:20:43;;;;;;;;;;;;;;;16.90;100.00;100110.06;1697699;83;20201;-85
2021/09/13 06:23:08;;;;;;;;;;;;;;;16.95;100.00;100114.28;1698557;83;20131;-85
2021/09/13 06:25:34;;;;;;;;;;;;;;;16.96;100.00;100112.75;1699823;82;20241;-86
2021/09/13 06:28:03;;;;;;;;;;;;;;;16.92;100.00;100112.02;1703932;83;21133;-85
2021/09/13 06:30:31;;;;;;;;;;;;;;;16.91;100.00;100115.20;1701224;83;20111;-85
2021/09/13 06:32:58;;;;;;;;;;;;;;;16.99;100.00;100114.20;1697439;83;20279;-85
2021/09/13 06:35:24;;;;;;;;;;;;;;;16.97;100.00;100117.59;1703234;82;20188;-85
2021/09/13 06:37:51;;;;;;;;;;;;;;;16.98;100.00;100117.89;1705906;82;20168;-83
2021/09/13 06:40:22;;;;;;;;;;;;;;;17.06;100.00;100112.41;1701050;82;21092;-87
2021/09/13 06:42:49;;;;;;;;;;;;;;;17.03;100.00;100114.13;1700772;82;20218;-88
2021/09/13 06:45:21;;;;;;;;;;;;;;;17.12;100.00;100110.76;1699018;83;20227;-85
2021/09/13 06:47:48;;;;;;;;;;;;;;;17.15;100.00;100115.20;1702365;82;20151;-86
2021/09/13 06:50:25;;;;;;;;;;;;;;;17.32;100.00;100112.16;1698401;83;20515;-85
2021/09/13 06:52:53;;;;;;;;;;;;;;;17.41;100.00;100113.62;1697446;83;21175;-84
2021/09/13 06:55:21;;;;;;;;;;;;;;;17.38;100.00;100116.69;1700420;82;20173;-87
2021/09/13 06:57:46;;;;;;;;;;;;;;;17.45;100.00;100112.20;1698428;83;20224;-86
2021/09/13 07:00:13;;;;;;;;;;;;;;;17.47;100.00;100120.82;1701297;83;21193;-83
2021/09/13 07:02:43;;;;;;;;;;;;;;;17.55;100.00;100116.62;1700390;83;20227;-84
2021/09/13 07:05:09;;;;;;;;;;;;;;;17.61;100.00;100122.19;1704023;82;20389;-83
2021/09/13 07:07:35;;;;;;;;;;;;;;;17.67;100.00;100124.05;1699065;83;20731;-82
2021/09/13 07:10:05;;;;;;;;;;;;;;;17.71;100.00;100125.27;1699653;82;20233;-85
2021/09/13 07:12:34;;;;;;;;;;;;;;;17.84;100.00;100126.62;1707664;82;20466;-89
2021/09/13 07:15:01;;;;;;;;;;;;;;;17.86;100.00;100121.89;1705087;83;20187;-87
2021/09/13 07:17:28;;;;;;;;;;;;;;;17.79;100.00;100130.93;1676185;83;21171;-85
2021/09/13 07:19:54;;;;;;;;;;;;;;;17.88;100.00;100127.91;1697267;83;20178;-83
2021/09/13 07:22:19;;;;;;;;;;;;;;;17.96;100.00;100131.38;1699711;83;20134;-83
2021/09/13 07:24:46;;;;;;;;;;;;;;;17.94;100.00;100131.09;1702692;82;20703;-83
2021/09/13 07:27:11;;;;;;;;;;;;;;;18.02;100.00;100127.89;1701197;83;20103;-82
2021/09/13 07:29:38;;;;;;;;;;;;;;;18.12;100.00;100130.98;1695538;83;21151;-84
2021/09/13 07:32:05;;;;;;;;;;;;;;;18.20;100.00;100125.42;1698773;82;20131;-81
2021/09/13 07:34:34;;;;;;;;;;;;;;;18.29;100.00;100136.21;1702204;83;20761;-82
2021/09/13 07:36:59;;;;;;;;;;;;;;;18.32;100.00;100136.81;1680600;82;20614;-82
2021/09/13 07:39:27;;;;;;;;;;;;;;;18.18;100.00;100114.13;1702047;83;20143;-82
2021/09/13 07:41:53;;;;;;;;;;;;;;;18.45;100.00;100131.46;1702151;82;21813;-83
2021/09/13 07:44:18;;;;;;;;;;;;;;;18.54;100.00;100136.09;1699780;83;20202;-84
2021/09/13 07:46:46;;;;;;;;;;;;;;;18.51;100.00;100137.31;1702637;82;20704;-84
2021/09/13 07:49:18;;;;;;;;;;;;;;;18.69;100.00;100133.15;1702605;83;20330;-84
2021/09/13 07:51:45;;;;;;;;;;;;;;;18.80;100.00;100132.52;1700404;82;20193;-90
2021/09/13 07:54:11;;;;;;;;;;;;;;;18.77;100.00;100136.42;1702149;81;20978;-90
2021/09/13 07:56:38;;;;;;;;;;;;;;;18.77;100.00;100135.62;1696653;83;20220;-89
2021/09/13 07:59:05;;;;;;;;;;;;;;;18.80;100.00;100135.20;1699040;83;20205;-84
2021/09/13 08:01:30;;;;;;;;;;;;;;;18.82;100.00;100141.15;1683285;82;20181;-83
2021/09/13 08:03:58;;;;;;;;;;;;;;;18.88;100.00;100139.00;1722001;82;20242;-89
2021/09/13 08:06:24;;;;;;;;;;;;;;;19.06;100.00;100136.14;1706420;83;21157;-87
2021/09/13 08:08:49;;;;;;;;;;;;;;;19.17;100.00;100140.83;1717163;81;20155;-86
2021/09/13 08:11:15;;;;;;;;;;;;;;;19.29;100.00;100141.80;1714522;81;20165;-87
2021/09/13 08:13:43;;;;;;;;;;;;;;;19.30;99.51;100148.80;1718047;81;20185;-88
2021/09/13 08:16:09;;;;;;;;;;;;;;;19.28;99.41;100150.05;1712276;82;20182;-84
2021/09/13 08:18:38;;;;;;;;;;;;;;;19.16;99.83;100152.59;1712244;82;21111;-88
2021/09/13 08:21:05;;;;;;;;;;;;;;;19.33;99.56;100152.92;1716747;81;20154;-91
2021/09/13 08:23:34;;;;;;;;;;;;;;;19.37;99.47;100157.64;1713833;81;20157;-88
2021/09/13 08:26:06;;;;;;;;;;;;;;;19.35;99.27;100159.69;1709428;81;20190;-90
2021/09/13 08:28:32;;;;;;;;;;;;;;;19.30;99.45;100159.52;1686074;83;20351;-88
2021/09/13 08:30:58;;;;;;;;;;;;;;;19.42;99.64;100162.84;1711538;82;21126;-86
2021/09/13 08:33:24;;;;;;;;;;;;;;;19.39;99.47;100160.10;1717088;82;20350;-92
2021/09/13 08:35:49;;;;;;;;;;;;;;;19.41;99.50;100163.38;1706708;82;20158;-90
2021/09/13 08:38:15;;;;;;;;;;;;;;;19.46;99.55;100163.55;1709109;81;20197;-90
2021/09/13 08:40:41;;;;;;;;;;;;;;;19.51;98.74;100165.58;1712326;81;20205;-90
2021/09/13 08:43:12;;;;;;;;;;;;;;;19.49;99.21;100160.97;1710605;82;21163;-86
2021/09/13 08:48:48;;;;;;;;;;;;;;;19.54;98.18;100168.67;1713496;82;20160;-85
2021/09/13 08:53:50;;;;;;;;;;;;;;;19.70;96.92;100164.66;1709785;82;20134;-87
2021/09/13 08:56:16;;;;;;;;;;;;;;;19.77;95.67;100166.50;1709773;82;20550;-91
2021/09/13 08:58:43;;;;;;;;;;;;;;;19.80;94.79;100169.56;1712382;82;20503;-88
2021/09/13 09:01:10;;;;;;;;;;;;;;;19.87;93.08;100168.16;1709072;82;20196;-87
2021/09/13 09:03:36;;;;;;;;;;;;;;;19.94;91.59;100178.33;1701120;83;20243;-85
2021/09/13 09:06:01;;;;;;;;;;;;;;;19.93;90.19;100178.02;1696494;83;20226;-89
2021/09/13 09:08:28;;;;;;;;;;;;;;;20.07;90.61;100176.91;1699600;83;20936;-87
2021/09/13 09:10:58;;;;;;;;;;;;;;;20.17;89.35;100180.42;1703801;82;20211;-89
2021/09/13 09:13:26;;;;;;;;;;;;;;;20.30;87.60;100176.80;1695086;82;20120;-89
2021/09/13 09:15:59;;;;;;;;;;;;;;;20.33;86.31;100179.05;1699306;83;20482;-88
2021/09/13 09:18:38;;;;;;;;;;;;;;;20.40;84.91;100180.31;1705321;82;20446;-88
2021/09/13 09:21:05;;;;;;;;;;;;;;;20.44;83.49;100189.05;1700911;82;21185;-90
2021/09/13 09:23:34;;;;;;;;;;;;;;;20.54;82.84;100185.05;1697102;82;20127;-93
2021/09/13 09:26:13;;;;;;;;;;;;;;;20.65;83.05;100178.16;1696593;83;20142;-88
2021/09/13 09:28:40;;;;;;;;;;;;;;;20.75;83.17;100169.89;1697951;83;20172;-90
2021/09/13 09:31:08;;;;;;;;;;;;;;;21.01;82.10;100174.69;1674295;83;20180;-92
2021/09/13 09:33:35;;;;;;;;;;;;;;;21.01;80.59;100169.31;1674632;83;20954;-88
2021/09/13 09:36:01;;;;;;;;;;;;;;;20.96;77.67;100174.55;1706768;82;20364;-90
2021/09/13 09:38:39;;;;;;;;;;;;;;;20.97;74.01;100168.11;1699453;83;20217;-87
2021/09/13 09:41:13;;;;;;;;;;;;;;;21.23;74.01;100174.22;1705024;82;20157;-86
2021/09/13 09:44:00;;;;;;;;;;;;;;;21.28;73.24;100163.61;1701186;82;20212;-88
2021/09/13 09:46:42;;;;;;;;;;;;;;;21.46;73.85;100167.60;1677512;83;21176;-85
2021/09/13 09:49:11;;;;;;;;;;;;;;;21.37;72.20;100168.16;1701130;83;20202;-86
2021/09/13 09:51:38;;;;;;;;;;;;;;;21.37;70.99;100167.62;1705255;82;20613;-85
2021/09/13 09:54:12;;;;;;;;;;;;;;;21.30;69.51;100177.62;1703011;83;20724;-83
2021/09/13 09:56:42;;;;;;;;;;;;;;;21.32;69.78;100167.48;1706490;82;20512;-86
2021/09/13 09:59:10;;;;;;;;;;;;;;;21.46;70.27;100170.29;1702478;82;20176;-86
2021/09/13 10:01:43;;;;;;;;;;;;;;;21.49;70.54;100164.49;1705916;81;20192;-87
2021/09/13 10:04:27;;;;;;;;;;;;;;;21.58;71.22;100162.81;1714826;82;20181;-89
2021/09/13 10:07:00;;;;;;;;;;;;;;;21.71;71.03;100169.36;1714312;82;20179;-83
2021/09/13 10:09:29;;;;;;;;;;;;;;;21.81;71.07;100176.34;1713109;81;20172;-86
2021/09/13 10:12:00;;;;;;;;;;;;;;;21.78;71.05;100168.74;1717874;82;21146;-88
2021/09/13 10:14:30;;;;;;;;;;;;;;;21.77;71.62;100163.06;1706106;82;20203;-87
2021/09/13 10:16:58;;;;;;;;;;;;;;;21.97;70.93;100166.79;1715917;81;20342;-91
2021/09/13 10:19:24;;;;;;;;;;;;;;;22.06;70.60;100167.25;1708868;81;20895;-88
2021/09/13 10:21:50;;;;;;;;;;;;;;;22.16;70.21;100160.78;1714433;81;20154;-90
2021/09/13 10:24:19;;;;;;;;;;;;;;;22.15;70.16;100171.23;1707715;81;21020;-86
2021/09/13 10:26:48;;;;;;;;;;;;;;;22.15;70.12;100168.55;1709375;81;20604;-84
2021/09/13 10:29:19;;;;;;;;;;;;;;;22.15;69.57;100171.23;1713129;82;20187;-86
2021/09/13 10:31:51;;;;;;;;;;;;;;;22.15;69.22;100173.13;1709640;81;20443;-86
2021/09/13 10:34:22;;;;;;;;;;;;;;;22.10;69.32;100161.71;1712663;81;20294;-86
2021/09/13 10:37:21;;;;;;;;;;;;;;;22.14;69.63;100161.55;1708127;81;39273;-88
2021/09/13 10:39:49;;;;;;;;;;;;;;;22.12;69.65;100164.98;1685360;81;20149;-87
2021/09/13 10:42:39;;;;;;;;;;;;;;;22.19;69.42;100160.32;1707739;81;20566;-87
2021/09/13 10:45:24;;;;;;;;;;;;;;;22.17;68.74;100165.63;1713885;81;20258;-86
2021/09/13 10:48:00;;;;;;;;;;;;;;;22.05;68.16;100171.02;1713092;82;20165;-87
2021/09/13 10:50:41;;;;;;;;;;;;;;;22.11;68.61;100164.70;1710672;81;21202;-89
2021/09/13 10:53:27;;;;;;;;;;;;;;;22.27;67.96;100157.00;1713323;82;20198;-88
2021/09/13 10:56:01;;;;;;;;;;;;;;;22.07;66.16;100166.21;1717559;81;20146;-88
2021/09/13 10:58:50;;;;;;;;;;;;;;;22.02;65.55;100145.93;1711313;82;20163;-85
2021/09/13 11:01:24;;;;;;;;;;;;;;;22.03;66.77;100157.80;1703726;82;20206;-84
2021/09/13 11:03:52;;;;;;;;;;;;;;;22.12;67.62;100154.22;1686081;83;21969;-85
2021/09/13 11:06:24;;;;;;;;;;;;;;;22.23;67.28;100162.02;1687188;83;20647;-87
2021/09/13 11:08:59;;;;;;;;;;;;;;;22.21;66.13;100154.71;1684527;83;20169;-89
2021/09/13 11:11:49;;;;;;;;;;;;;;;22.22;66.82;100165.77;1692057;83;20421;-87
2021/09/13 11:14:18;;;;;;;;;;;;;;;22.11;67.52;100152.61;1681347;83;20257;-87
2021/09/13 11:16:55;;;;;;;;;;;;;;;22.12;68.17;100154.22;1693751;83;21868;-86
2021/09/13 11:19:22;;;;;;;;;;;;;;;22.09;69.01;100160.06;1690463;83;20501;-88
2021/09/13 11:21:51;;;;;;;;;;;;;;;21.97;70.13;100157.88;1690738;83;20741;-87
2021/09/13 11:24:19;;;;;;;;;;;;;;;22.04;70.36;100161.30;1691764;83;20169;-89
2021/09/13 11:26:49;;;;;;;;;;;;;;;21.94;70.82;100163.72;1692207;83;20201;-89
2021/09/13 11:29:25;;;;;;;;;;;;;;;21.82;69.58;100172.59;1692186;83;20185;-89
2021/09/13 11:31:58;;;;;;;;;;;;;;;21.86;70.26;100167.06;1687633;83;20177;-86
2021/09/13 11:34:34;;;;;;;;;;;;;;;21.88;70.18;100160.91;1691678;83;20199;-87
2021/09/13 11:37:01;;;;;;;;;;;;;;;21.94;69.66;100161.03;1689788;83;20181;-88
2021/09/13 11:39:33;;;;;;;;;;;;;;;21.81;68.89;100160.22;1690542;83;20534;-87
2021/09/13 11:42:13;;;;;;;;;;;;;;;21.90;68.95;100167.94;1688970;83;21516;-86
2021/09/13 11:44:45;;;;;;;;;;;;;;;21.87;69.39;100168.67;1690942;83;20200;-84
2021/09/13 11:47:20;;;;;;;;;;;;;;;22.02;69.08;100164.75;1690467;83;20169;-87
2021/09/13 11:49:47;;;;;;;;;;;;;;;22.09;68.78;100164.09;1690196;83;20271;-88
2021/09/13 11:52:15;;;;;;;;;;;;;;;22.01;68.81;100169.83;1693685;83;20185;-88
2021/09/13 11:54:45;;;;;;;;;;;;;;;22.10;68.96;100155.53;1688603;83;21120;-86
2021/09/13 11:57:28;;;;;;;;;;;;;;;22.11;68.93;100153.11;1691524;82;20133;-84
2021/09/13 12:00:01;;;;;;;;;;;;;;;22.16;67.55;100164.82;1687800;83;20581;-85
2021/09/13 12:02:29;;;;;;;;;;;;;;;22.27;64.76;100169.11;1692561;83;20202;-86
2021/09/13 12:05:00;;;;;;;;;;;;;;;22.46;65.15;100157.73;1692530;82;20253;-84
2021/09/13 12:07:30;;;;;;;;;;;;;;;22.43;65.02;100172.46;1691477;83;20453;-85
2021/09/13 12:10:01;;;;;;;;;;;;;;;22.51;64.28;100160.02;1690348;83;20183;-87
2021/09/13 12:12:28;;;;;;;;;;;;;;;22.52;62.69;100153.56;1688698;83;20245;-85
2021/09/13 12:14:57;;;;;;;;;;;;;;;22.59;61.86;100147.55;1653863;84;20998;-86
2021/09/13 12:17:25;;;;;;;;;;;;;;;22.71;61.85;100148.85;1686864;83;20147;-88
2021/09/13 12:20:12;;;;;;;;;;;;;;;22.73;59.55;100137.84;1676059;83;21075;-92
2021/09/13 12:22:38;;;;;;;;;;;;;;;22.73;59.72;100148.61;1690260;83;20178;-91
2021/09/13 12:25:12;;;;;;;;;;;;;;;22.78;59.47;100147.40;1689481;83;20563;-89
2021/09/13 12:27:43;;;;;;;;;;;;;;;22.87;58.79;100151.87;1690055;83;20522;-88
2021/09/13 12:30:15;;;;;;;;;;;;;;;22.91;58.63;100130.96;1684482;83;20228;-88
2021/09/13 12:32:51;;;;;;;;;;;;;;;22.80;58.68;100135.86;1693223;83;20571;-90
2021/09/13 12:35:17;;;;;;;;;;;;;;;22.88;58.40;100138.17;1688491;83;20145;-88
2021/09/13 12:37:46;;;;;;;;;;;;;;;22.87;59.19;100134.37;1671204;84;20124;-89
2021/09/13 12:40:16;;;;;;;;;;;;;;;22.99;59.39;100127.61;1688543;83;20578;-90
2021/09/13 12:42:59;;;;;;;;;;;;;;;23.00;60.16;100137.34;1689947;83;20133;-88